^^
Paulen-Weather Station Historical Data
Daily Summary for January 31, 2022 Units:  Metric    English   Both
Daily Weekly Monthly Yearly Custom
  High: Low: Average:
Temperature: 4 °C 1 °C 1.6 °C
Dew Point: 1 °C -4 °C -1.7 °C
Humidity: 91% 71% 79%
Wind Speed: 30km/h 5km/h 17.5km/h
Wind Gust: 27km/h - -
Wind- - ENE
Pressure: 1009.41 hPa 1004.37 hPa -
Precipitation: 0 mm    
Historical Graphs
 
 
Tabular Data for January 31, 2022
Time Temperature Dew Point Pressure Wind Wind Speed Wind Gust Humidity Rainfall Rate (Hourly) solar
00:04 1 °C -3 °C 1009.41 hPa NNE 13 km/h 13 km/h 77% 0 mm 0 W/m2
00:09 1 °C -3 °C 1009.25 hPa NE 15 km/h 14 km/h 76% 0 mm 0 W/m2
00:14 1 °C -3 °C 1009.25 hPa NE 13 km/h 13 km/h 75% 0 mm 0 W/m2
00:19 1 °C -3 °C 1009.18 hPa NNE 16 km/h 15 km/h 74% 0 mm 0 W/m2
00:24 1 °C -3 °C 1009.11 hPa NNE 13 km/h 10 km/h 75% 0 mm 0 W/m2
00:29 1 °C -3 °C 1009.01 hPa NNE 16 km/h 14 km/h 75% 0 mm 0 W/m2
00:34 1 °C -3 °C 1008.84 hPa NE 15 km/h 12 km/h 75% 0 mm 0 W/m2
00:39 1 °C -3 °C 1008.7 hPa NE 15 km/h 13 km/h 75% 0 mm 0 W/m2
00:44 1 °C -3 °C 1008.6 hPa NE 13 km/h 11 km/h 75% 0 mm 0 W/m2
00:49 1 °C -3 °C 1008.3 hPa NE 13 km/h 12 km/h 76% 0 mm 0 W/m2
00:54 1 °C -3 °C 1008.16 hPa NE 13 km/h 12 km/h 77% 0 mm 0 W/m2
00:59 1 °C -3 °C 1008.03 hPa NE 10 km/h 9 km/h 77% 0 mm 0 W/m2
01:04 1 °C -3 °C 1007.96 hPa ENE 6 km/h 5 km/h 76% 0 mm 0 W/m2
01:09 1 °C -3 °C 1007.96 hPa ENE 5 km/h 4 km/h 76% 0 mm 0 W/m2
01:14 1 °C -3 °C 1007.92 hPa NE 7 km/h 6 km/h 75% 0 mm 0 W/m2
01:19 1 °C -3 °C 1007.82 hPa NNE 10 km/h 10 km/h 76% 0 mm 0 W/m2
01:24 1 °C -3 °C 1007.82 hPa NNE 11 km/h 9 km/h 76% 0 mm 0 W/m2
01:29 1 °C -3 °C 1007.79 hPa NE 11 km/h 9 km/h 75% 0 mm 0 W/m2
01:34 1 °C -3 °C 1007.79 hPa NE 12 km/h 13 km/h 74% 0 mm 0 W/m2
01:39 1 °C -3 °C 1007.72 hPa NE 15 km/h 14 km/h 74% 0 mm 0 W/m2
01:44 1 °C -3 °C 1007.52 hPa NE 13 km/h 12 km/h 73% 0 mm 0 W/m2
01:49 1 °C -3 °C 1007.52 hPa NE 10 km/h 8 km/h 73% 0 mm 0 W/m2
01:54 1 °C -3 °C 1007.45 hPa NE 11 km/h 11 km/h 73% 0 mm 0 W/m2
01:59 1 °C -3 °C 1007.35 hPa NE 11 km/h 11 km/h 73% 0 mm 0 W/m2
02:04 1 °C -3 °C 1007.25 hPa NE 11 km/h 9 km/h 72% 0 mm 0 W/m2
02:09 1 °C -3 °C 1007.28 hPa NE 10 km/h 8 km/h 73% 0 mm 0 W/m2
02:14 1 °C -3 °C 1007.15 hPa NE 7 km/h 6 km/h 73% 0 mm 0 W/m2
02:19 1 °C -3 °C 1006.91 hPa NE 8 km/h 8 km/h 73% 0 mm 0 W/m2
02:24 1 °C -4 °C 1006.84 hPa NE 9 km/h 8 km/h 72% 0 mm 0 W/m2
02:29 1 °C -4 °C 1006.67 hPa NE 9 km/h 7 km/h 71% 0 mm 0 W/m2
02:34 1 °C -3 °C 1006.54 hPa NE 7 km/h 7 km/h 72% 0 mm 0 W/m2
02:39 1 °C -3 °C 1006.43 hPa NE 9 km/h 8 km/h 73% 0 mm 0 W/m2
02:44 1 °C -3 °C 1006.37 hPa NE 10 km/h 9 km/h 74% 0 mm 0 W/m2
02:49 1 °C -3 °C 1006.37 hPa NE 8 km/h 6 km/h 75% 0 mm 0 W/m2
02:54 1 °C -3 °C 1006.27 hPa NE 7 km/h 7 km/h 74% 0 mm 0 W/m2
02:59 1 °C -3 °C 1006.16 hPa NE 12 km/h 10 km/h 73% 0 mm 0 W/m2
03:04 1 °C -3 °C 1006.06 hPa NE 12 km/h 11 km/h 73% 0 mm 0 W/m2
03:09 1 °C -3 °C 1006.03 hPa NE 13 km/h 14 km/h 73% 0 mm 0 W/m2
03:14 1 °C -3 °C 1005.96 hPa NNE 12 km/h 10 km/h 75% 0 mm 0 W/m2
03:19 1 °C -3 °C 1005.86 hPa NNE 10 km/h 9 km/h 76% 0 mm 0 W/m2
03:24 1 °C -3 °C 1005.83 hPa NE 11 km/h 10 km/h 76% 0 mm 0 W/m2
03:29 1 °C -3 °C 1005.66 hPa NE 12 km/h 10 km/h 75% 0 mm 0 W/m2
03:34 1 °C -3 °C 1005.52 hPa NE 16 km/h 13 km/h 76% 0 mm 0 W/m2
03:39 1 °C -3 °C 1005.45 hPa NE 17 km/h 14 km/h 77% 0 mm 0 W/m2
03:44 1 °C -3 °C 1005.25 hPa NE 18 km/h 16 km/h 77% 0 mm 0 W/m2
03:49 1 °C -3 °C 1005.15 hPa NE 18 km/h 17 km/h 77% 0 mm 0 W/m2
03:54 1 °C -3 °C 1005.11 hPa NE 19 km/h 18 km/h 77% 0 mm 0 W/m2
03:59 1 °C -3 °C 1005.08 hPa NE 16 km/h 18 km/h 78% 0 mm 0 W/m2
04:04 1 °C -3 °C 1004.91 hPa NE 13 km/h 12 km/h 78% 0 mm 0 W/m2
04:09 1 °C -2 °C 1004.88 hPa NE 15 km/h 13 km/h 78% 0 mm 0 W/m2
04:14 1 °C -2 °C 1004.84 hPa NE 13 km/h 12 km/h 78% 0 mm 0 W/m2
04:19 1 °C -2 °C 1004.78 hPa NE 15 km/h 15 km/h 79% 0 mm 0 W/m2
04:24 1 °C -2 °C 1004.74 hPa NE 18 km/h 16 km/h 79% 0 mm 0 W/m2
04:29 1 °C -2 °C 1004.81 hPa NE 17 km/h 14 km/h 79% 0 mm 0 W/m2
04:34 1 °C -2 °C 1004.78 hPa NE 17 km/h 14 km/h 79% 0 mm 0 W/m2
04:39 1 °C -2 °C 1004.71 hPa NE 15 km/h 14 km/h 79% 0 mm 0 W/m2
04:44 1 °C -2 °C 1004.74 hPa NE 15 km/h 13 km/h 80% 0 mm 0 W/m2
04:49 1 °C -2 °C 1004.71 hPa NE 20 km/h 19 km/h 80% 0 mm 0 W/m2
04:54 1 °C -2 °C 1004.64 hPa NE 18 km/h 15 km/h 81% 0 mm 0 W/m2
04:59 1 °C -2 °C 1004.61 hPa NE 17 km/h 16 km/h 81% 0 mm 0 W/m2
05:04 1 °C -2 °C 1004.57 hPa NE 17 km/h 16 km/h 82% 0 mm 0 W/m2
05:09 1 °C -2 °C 1004.61 hPa NE 14 km/h 13 km/h 81% 0 mm 0 W/m2
05:14 1 °C -2 °C 1004.57 hPa NE 16 km/h 15 km/h 81% 0 mm 0 W/m2
05:19 1 °C -2 °C 1004.44 hPa NE 16 km/h 14 km/h 81% 0 mm 0 W/m2
05:24 1 °C -2 °C 1004.47 hPa NE 17 km/h 14 km/h 81% 0 mm 0 W/m2
05:29 1 °C -2 °C 1004.47 hPa NE 17 km/h 15 km/h 81% 0 mm 0 W/m2
05:34 1 °C -2 °C 1004.47 hPa NNE 18 km/h 17 km/h 81% 0 mm 0 W/m2
05:39 1 °C -2 °C 1004.47 hPa NE 18 km/h 17 km/h 81% 0 mm 0 W/m2
05:44 1 °C -2 °C 1004.5 hPa NE 18 km/h 18 km/h 81% 0 mm 0 W/m2
05:49 1 °C -2 °C 1004.47 hPa NNE 19 km/h 17 km/h 81% 0 mm 0 W/m2
05:54 1 °C -2 °C 1004.37 hPa NNE 17 km/h 15 km/h 82% 0 mm 0 W/m2
05:59 1 °C -2 °C 1004.44 hPa NNE 19 km/h 17 km/h 82% 0 mm 0 W/m2
06:04 1 °C -2 °C 1004.54 hPa NE 18 km/h 15 km/h 82% 0 mm 0 W/m2
06:09 1 °C -2 °C 1004.5 hPa NE 19 km/h 18 km/h 82% 0 mm 0 W/m2
06:14 1 °C -2 °C 1004.54 hPa NNE 22 km/h 21 km/h 81% 0 mm 0 W/m2
06:19 1 °C -2 °C 1004.57 hPa NE 24 km/h 22 km/h 81% 0 mm 0 W/m2
06:24 1 °C -2 °C 1004.57 hPa NE 19 km/h 17 km/h 81% 0 mm 0 W/m2
06:29 1 °C -2 °C 1004.54 hPa NNE 20 km/h 17 km/h 81% 0 mm 0 W/m2
06:34 1 °C -2 °C 1004.61 hPa NNE 20 km/h 17 km/h 82% 0 mm 0 W/m2
06:39 1 °C -1 °C 1004.71 hPa NNE 18 km/h 15 km/h 83% 0 mm 0 W/m2
06:44 1 °C -1 °C 1004.67 hPa NE 15 km/h 13 km/h 83% 0 mm 0 W/m2
06:49 1 °C -1 °C 1004.78 hPa NE 13 km/h 12 km/h 83% 0 mm 0 W/m2
06:54 2 °C -1 °C 1004.67 hPa NE 13 km/h 10 km/h 83% 0 mm 0 W/m2
06:59 2 °C 0 °C 1004.67 hPa E 14 km/h 15 km/h 84% 0 mm 0 W/m2
07:04 3 °C 1 °C 1004.71 hPa SE 27 km/h 25 km/h 84% 0 mm 0 W/m2
07:09 3 °C 1 °C 1004.74 hPa SSE 30 km/h 27 km/h 84% 0 mm 0 W/m2
07:14 3 °C 1 °C 1004.81 hPa SSE 26 km/h 24 km/h 84% 0 mm 0 W/m2
07:19 3 °C 1 °C 1004.81 hPa S 27 km/h 23 km/h 85% 0 mm 0 W/m2
07:24 3 °C 1 °C 1004.84 hPa S 24 km/h 19 km/h 87% 0 mm 0 W/m2
07:29 2 °C 1 °C 1004.84 hPa S 19 km/h 15 km/h 88% 0 mm 0 W/m2
07:34 3 °C 1 °C 1004.94 hPa SSE 21 km/h 21 km/h 87% 0 mm 0 W/m2
07:39 3 °C 1 °C 1005.01 hPa ESE 24 km/h 22 km/h 82% 0 mm 0 W/m2
07:44 4 °C 0 °C 1005.08 hPa ESE 26 km/h 21 km/h 80% 0 mm 0 W/m2
07:49 4 °C 0 °C 1005.15 hPa SE 24 km/h 21 km/h 79% 0 mm 0 W/m2
07:54 4 °C 0 °C 1005.18 hPa SE 24 km/h 20 km/h 78% 0 mm 0 W/m2
07:59 4 °C 0 °C 1005.18 hPa SE 25 km/h 20 km/h 77% 0 mm 0 W/m2
08:04 4 °C 0 °C 1005.25 hPa SE 26 km/h 22 km/h 76% 0 mm 0 W/m2
08:09 4 °C 0 °C 1005.28 hPa SE 27 km/h 22 km/h 76% 0 mm 0 W/m2
08:14 4 °C 0 °C 1005.32 hPa SE 26 km/h 21 km/h 75% 0 mm 0 W/m2
08:19 4 °C -1 °C 1005.52 hPa SE 26 km/h 24 km/h 75% 0 mm 0 W/m2
08:24 3 °C -1 °C 1005.55 hPa SSE 27 km/h 23 km/h 73% 0 mm 0 W/m2
08:29 3 °C -1 °C 1005.66 hPa SSE 25 km/h 23 km/h 74% 0 mm 0 W/m2
08:34 3 °C -1 °C 1005.72 hPa SE 26 km/h 23 km/h 73% 0 mm 0 W/m2
08:39 3 °C -1 °C 1005.83 hPa SSE 24 km/h 23 km/h 72% 0 mm 0 W/m2
08:44 3 °C -1 °C 1005.96 hPa SSE 21 km/h 20 km/h 73% 0 mm 0 W/m2
08:49 3 °C -1 °C 1005.99 hPa SE 24 km/h 21 km/h 71% 0 mm 0 W/m2
08:54 3 °C -1 °C 1005.93 hPa SSE 22 km/h 21 km/h 72% 0 mm 0 W/m2
08:59 3 °C -1 °C 1005.93 hPa SE 24 km/h 19 km/h 72% 0 mm 0 W/m2
09:04 3 °C -1 °C 1005.96 hPa SE 21 km/h 17 km/h 71% 0 mm 5 W/m2
09:09 3 °C -1 °C 1006.03 hPa SE 24 km/h 22 km/h 72% 0 mm 7 W/m2
09:14 3 °C -1 °C 1006.13 hPa SE 21 km/h 18 km/h 73% 0 mm 9 W/m2
09:19 3 °C -1 °C 1006.27 hPa SE 22 km/h 19 km/h 74% 0 mm 11 W/m2
09:24 3 °C -1 °C 1006.4 hPa SE 19 km/h 17 km/h 74% 0 mm 11 W/m2
09:29 3 °C -1 °C 1006.37 hPa SE 20 km/h 18 km/h 74% 0 mm 16 W/m2
09:34 3 °C -1 °C 1006.4 hPa ESE 23 km/h 19 km/h 75% 0 mm 19 W/m2
09:39 3 °C -1 °C 1006.47 hPa ESE 19 km/h 16 km/h 75% 0 mm 21 W/m2
09:44 3 °C -1 °C 1006.47 hPa SE 19 km/h 17 km/h 75% 0 mm 32 W/m2
09:49 3 °C -1 °C 1006.57 hPa ESE 19 km/h 17 km/h 75% 0 mm 35 W/m2
09:54 3 °C -1 °C 1006.64 hPa SE 18 km/h 16 km/h 75% 0 mm 35 W/m2
09:59 3 °C -1 °C 1006.71 hPa ESE 18 km/h 14 km/h 76% 0 mm 33 W/m2
10:04 3 °C -1 °C 1006.81 hPa ESE 21 km/h 16 km/h 77% 0 mm 30 W/m2
10:09 3 °C -1 °C 1006.91 hPa ESE 13 km/h 13 km/h 77% 0 mm 26 W/m2
10:14 3 °C -1 °C 1007.01 hPa ENE 19 km/h 16 km/h 77% 0 mm 23 W/m2
10:19 3 °C -1 °C 1007.11 hPa E 18 km/h 16 km/h 77% 0 mm 26 W/m2
10:24 3 °C -1 °C 1007.15 hPa NE 16 km/h 19 km/h 78% 0 mm 28 W/m2
10:29 2 °C -1 °C 1007.11 hPa NNE 24 km/h 22 km/h 81% 0 mm 35 W/m2
10:34 2 °C -1 °C 1007.15 hPa NE 22 km/h 22 km/h 83% 0 mm 40 W/m2
10:39 2 °C -1 °C 1007.15 hPa NE 21 km/h 19 km/h 85% 0 mm 49 W/m2
10:44 2 °C -1 °C 1007.25 hPa NNE 18 km/h 18 km/h 85% 0 mm 56 W/m2
10:49 2 °C 0 °C 1007.28 hPa NNE 20 km/h 18 km/h 85% 0 mm 74 W/m2
10:54 2 °C 0 °C 1007.42 hPa NNE 22 km/h 19 km/h 86% 0 mm 77 W/m2
10:59 2 °C -1 °C 1007.45 hPa NNE 23 km/h 22 km/h 85% 0 mm 76 W/m2
11:04 2 °C -1 °C 1007.38 hPa NNE 21 km/h 19 km/h 85% 0 mm 72 W/m2
11:09 1 °C -1 °C 1007.45 hPa NNE 23 km/h 22 km/h 85% 0 mm 77 W/m2
11:14 1 °C -1 °C 1007.45 hPa NNE 24 km/h 22 km/h 85% 0 mm 81 W/m2
11:19 1 °C -1 °C 1007.55 hPa NNE 26 km/h 23 km/h 85% 0 mm 72 W/m2
11:24 1 °C -1 °C 1007.52 hPa NNE 24 km/h 21 km/h 85% 0 mm 56 W/m2
11:29 1 °C -1 °C 1007.76 hPa NNE 26 km/h 25 km/h 85% 0 mm 49 W/m2
11:34 1 °C -1 °C 1007.86 hPa NNE 27 km/h 24 km/h 84% 0 mm 37 W/m2
11:39 1 °C -1 °C 1007.92 hPa NNE 23 km/h 20 km/h 84% 0 mm 44 W/m2
11:44 1 °C -1 °C 1008.06 hPa NNE 25 km/h 22 km/h 84% 0 mm 49 W/m2
11:49 1 °C -1 °C 1008.26 hPa NNE 24 km/h 22 km/h 84% 0 mm 49 W/m2
11:54 1 °C -1 °C 1008.3 hPa NNE 22 km/h 21 km/h 85% 0 mm 47 W/m2
11:59 1 °C -1 °C 1008.4 hPa NE 21 km/h 20 km/h 85% 0 mm 49 W/m2
12:04 1 °C -1 °C 1008.43 hPa NE 20 km/h 18 km/h 86% 0 mm 67 W/m2
12:09 1 °C -1 °C 1008.47 hPa NE 19 km/h 18 km/h 86% 0 mm 74 W/m2
12:14 1 °C -1 °C 1008.47 hPa NNE 18 km/h 16 km/h 87% 0 mm 74 W/m2
12:19 1 °C -1 °C 1008.57 hPa NNE 17 km/h 14 km/h 88% 0 mm 76 W/m2
12:24 1 °C -1 °C 1008.6 hPa NNE 16 km/h 13 km/h 89% 0 mm 76 W/m2
12:29 1 °C -1 °C 1008.67 hPa NNE 14 km/h 11 km/h 89% 0 mm 76 W/m2
12:34 1 °C -1 °C 1008.74 hPa NNE 16 km/h 14 km/h 90% 0 mm 72 W/m2
12:39 1 °C -1 °C 1008.77 hPa NNE 18 km/h 15 km/h 90% 0 mm 69 W/m2
12:44 1 °C -1 °C 1008.74 hPa NNE 16 km/h 14 km/h 91% 0 mm 65 W/m2
12:49 1 °C -1 °C 1008.6 hPa NNE 15 km/h 13 km/h 90% 0 mm 70 W/m2
12:54 1 °C -1 °C 1008.57 hPa NNE 14 km/h 12 km/h 90% 0 mm 74 W/m2
12:59 1 °C -1 °C 1008.53 hPa NNE 13 km/h 13 km/h 90% 0 mm 74 W/m2
13:04 1 °C -1 °C 1008.57 hPa NNE 14 km/h 12 km/h 90% 0 mm 72 W/m2
13:09 1 °C -1 °C 1008.57 hPa NNE 14 km/h 10 km/h 90% 0 mm 70 W/m2
13:14 1 °C -1 °C 1008.53 hPa NNE 12 km/h 10 km/h 90% 0 mm 65 W/m2
13:19 1 °C -1 °C 1008.5 hPa NNE 14 km/h 13 km/h 91% 0 mm 65 W/m2
Compliments of Weather Underground - 2 mb